createdAt,value
2018-12-09T00:01:09.069Z,2.10
2018-12-09T00:03:36.561Z,3.10
2018-12-09T00:06:04.074Z,1.93
2018-12-09T00:08:31.573Z,1.60
2018-12-09T00:10:59.069Z,1.73
2018-12-09T00:13:26.564Z,1.27
2018-12-09T00:15:54.062Z,2.10
2018-12-09T00:18:21.555Z,1.57
2018-12-09T00:20:49.052Z,1.40
2018-12-09T00:23:16.635Z,1.73
2018-12-09T00:25:44.454Z,1.47
2018-12-09T00:28:11.945Z,1.60
2018-12-09T00:30:39.443Z,1.90
2018-12-09T00:33:06.937Z,2.40
2018-12-09T00:35:34.433Z,1.37
2018-12-09T00:38:01.924Z,2.03
2018-12-09T00:40:29.418Z,1.57
2018-12-09T00:42:56.909Z,1.53
2018-12-09T00:45:24.403Z,2.03
2018-12-09T00:47:51.901Z,2.03
2018-12-09T00:50:19.389Z,1.63
2018-12-09T00:52:46.881Z,1.83
2018-12-09T00:55:14.377Z,1.87
2018-12-09T00:57:41.868Z,1.90
2018-12-09T01:00:11.197Z,1.27
2018-12-09T01:02:38.775Z,1.90
2018-12-09T01:05:06.270Z,2.00
2018-12-09T01:07:33.761Z,2.83
2018-12-09T01:10:01.254Z,1.10
2018-12-09T01:12:28.745Z,1.50
2018-12-09T01:14:56.245Z,1.80
2018-12-09T01:17:23.738Z,2.27
2018-12-09T01:19:51.226Z,2.40
2018-12-09T01:22:18.723Z,1.73
2018-12-09T01:24:46.217Z,1.30
2018-12-09T01:27:13.716Z,1.47
2018-12-09T01:29:41.218Z,1.37
2018-12-09T01:32:08.829Z,1.37
2018-12-09T01:34:36.331Z,1.33
2018-12-09T01:37:03.835Z,1.40
2018-12-09T01:39:31.699Z,1.80
2018-12-09T01:41:59.251Z,1.30
2018-12-09T01:44:26.817Z,1.90
2018-12-09T01:46:54.322Z,1.63
2018-12-09T01:49:21.824Z,1.57
2018-12-09T01:51:49.317Z,1.10
2018-12-09T01:54:17.428Z,2.63
2018-12-09T01:56:44.917Z,2.07
2018-12-09T01:59:12.414Z,1.27
2018-12-09T02:01:39.914Z,1.63
2018-12-09T02:04:07.405Z,1.67
2018-12-09T02:06:34.901Z,2.80
2018-12-09T02:09:02.409Z,1.20
2018-12-09T02:11:30.165Z,1.20
2018-12-09T02:13:57.663Z,1.87
2018-12-09T02:16:25.162Z,1.33
2018-12-09T02:19:15.842Z,1.20
2018-12-09T02:21:44.205Z,1.30
2018-12-09T02:24:11.706Z,3.60
2018-12-09T02:26:39.200Z,1.47
2018-12-09T02:29:06.705Z,1.27
2018-12-09T02:31:34.408Z,1.30
2018-12-09T02:34:01.914Z,1.27
2018-12-09T02:36:29.418Z,1.30
2018-12-09T02:38:56.929Z,1.70
2018-12-09T02:41:24.538Z,1.37
2018-12-09T02:43:52.041Z,1.30
2018-12-09T02:46:19.565Z,1.27
2018-12-09T02:48:47.572Z,1.77
2018-12-09T02:51:15.079Z,0.93
2018-12-09T02:53:42.584Z,1.30
2018-12-09T02:56:10.090Z,1.20
2018-12-09T02:58:37.594Z,2.20
2018-12-09T03:01:05.505Z,1.30
2018-12-09T03:03:33.001Z,1.57
2018-12-09T03:06:00.822Z,1.40
2018-12-09T03:08:28.322Z,1.33
2018-12-09T03:10:55.820Z,1.40
2018-12-09T03:13:23.319Z,1.10
2018-12-09T03:15:50.814Z,1.63
2018-12-09T03:18:18.434Z,1.80
2018-12-09T03:20:45.941Z,1.07
2018-12-09T03:23:13.999Z,1.20
2018-12-09T03:25:41.597Z,1.40
2018-12-09T03:28:09.090Z,1.50
2018-12-09T03:30:36.594Z,1.37
2018-12-09T03:33:04.302Z,2.17
2018-12-09T03:35:31.804Z,1.30
2018-12-09T03:37:59.314Z,1.43
2018-12-09T03:40:26.808Z,1.37
2018-12-09T03:42:54.302Z,1.33
2018-12-09T03:45:21.809Z,1.27
2018-12-09T03:47:49.305Z,1.10
2018-12-09T03:50:16.813Z,1.43
2018-12-09T03:52:44.310Z,1.37
2018-12-09T03:55:11.808Z,1.03
2018-12-09T03:57:39.310Z,1.40
2018-12-09T04:00:07.101Z,1.47
2018-12-09T04:02:34.595Z,1.20
2018-12-09T04:05:02.105Z,1.83
2018-12-09T04:07:29.649Z,1.20
2018-12-09T04:09:57.150Z,1.63
2018-12-09T04:12:24.650Z,1.60
2018-12-09T04:14:52.153Z,1.20
2018-12-09T04:17:19.650Z,1.27
2018-12-09T04:19:47.150Z,1.30
2018-12-09T04:22:14.661Z,1.23
2018-12-09T04:24:42.162Z,2.37
2018-12-09T04:27:09.662Z,1.27
2018-12-09T04:29:37.157Z,1.77
2018-12-09T04:32:04.655Z,1.90
2018-12-09T04:34:32.150Z,0.90
2018-12-09T04:36:59.651Z,1.80
2018-12-09T04:39:27.150Z,1.23
2018-12-09T04:41:54.650Z,1.13
2018-12-09T04:44:22.149Z,1.33
2018-12-09T04:46:49.646Z,1.40
2018-12-09T04:49:17.141Z,1.47
2018-12-09T04:51:52.575Z,1.50
2018-12-09T04:54:20.263Z,1.10
2018-12-09T04:56:47.776Z,1.17
2018-12-09T04:59:18.237Z,1.33
2018-12-09T05:01:46.341Z,1.00
2018-12-09T05:04:13.943Z,1.13
2018-12-09T05:06:41.557Z,1.17
2018-12-09T05:09:09.053Z,1.43
2018-12-09T05:11:36.965Z,1.40
2018-12-09T05:14:04.774Z,1.23
2018-12-09T05:16:32.270Z,1.17
2018-12-09T05:18:59.772Z,1.37
2018-12-09T05:21:27.269Z,1.30
2018-12-09T05:23:54.772Z,1.83
2018-12-09T05:26:22.681Z,1.13
2018-12-09T05:28:50.187Z,1.00
2018-12-09T05:31:17.689Z,1.63
2018-12-09T05:33:45.197Z,1.33
2018-12-09T05:36:12.700Z,1.47
2018-12-09T05:38:40.814Z,1.20
2018-12-09T05:41:08.401Z,1.67
2018-12-09T05:43:35.896Z,1.40
2018-12-09T05:46:03.393Z,1.30
2018-12-09T05:48:30.890Z,1.10
2018-12-09T05:50:58.395Z,1.00
2018-12-09T05:53:25.901Z,1.33
2018-12-09T05:55:53.401Z,1.33
2018-12-09T05:58:22.887Z,1.70
2018-12-09T06:00:50.386Z,1.07
2018-12-09T06:03:18.933Z,1.20
2018-12-09T06:05:46.434Z,1.27
2018-12-09T06:08:13.928Z,1.37
2018-12-09T06:10:41.430Z,1.73
2018-12-09T06:13:08.934Z,1.20
2018-12-09T06:15:36.437Z,1.53
2018-12-09T06:18:03.940Z,1.30
2018-12-09T06:20:31.819Z,1.43
2018-12-09T06:22:59.314Z,1.50
2018-12-09T06:25:26.814Z,1.40
2018-12-09T06:27:54.328Z,1.10
2018-12-09T06:30:21.829Z,1.10
2018-12-09T06:32:49.339Z,1.60
2018-12-09T06:35:16.845Z,1.40
2018-12-09T06:37:44.338Z,1.30
2018-12-09T06:40:11.965Z,1.30
2018-12-09T06:42:39.470Z,1.30
2018-12-09T06:45:07.043Z,2.00
2018-12-09T06:47:34.669Z,1.40
2018-12-09T06:50:02.542Z,1.70
2018-12-09T06:52:30.041Z,1.77
2018-12-09T06:54:58.241Z,1.50
2018-12-09T06:57:25.743Z,1.47
2018-12-09T06:59:53.250Z,1.73
2018-12-09T07:02:20.746Z,1.40
2018-12-09T07:04:48.245Z,1.53
2018-12-09T07:07:15.745Z,1.37
2018-12-09T07:09:43.243Z,1.60
2018-12-09T07:12:10.750Z,1.63
2018-12-09T07:14:38.246Z,1.77
2018-12-09T07:17:05.749Z,1.23
2018-12-09T07:19:33.249Z,1.53
2018-12-09T07:22:00.736Z,0.93
2018-12-09T07:24:28.229Z,1.27
2018-12-09T07:26:55.730Z,1.77
2018-12-09T07:29:23.233Z,1.63
2018-12-09T07:31:50.729Z,1.50
2018-12-09T07:34:18.941Z,1.77
2018-12-09T07:36:46.437Z,1.20
2018-12-09T07:39:13.942Z,1.13
2018-12-09T07:41:41.449Z,1.60
2018-12-09T07:44:08.949Z,1.47
2018-12-09T07:46:36.450Z,2.30
2018-12-09T07:49:03.951Z,1.73
2018-12-09T07:51:31.454Z,1.30
2018-12-09T07:53:59.038Z,1.23
2018-12-09T07:56:26.537Z,1.63
2018-12-09T07:58:54.029Z,1.80
2018-12-09T08:01:21.524Z,1.30
2018-12-09T08:03:49.021Z,2.57
2018-12-09T08:06:16.522Z,1.20
2018-12-09T08:08:44.013Z,1.63
2018-12-09T08:11:12.004Z,1.30
2018-12-09T08:13:39.500Z,1.33
2018-12-09T08:16:06.990Z,1.70
2018-12-09T08:18:34.481Z,2.17
2018-12-09T08:21:01.973Z,1.40
2018-12-09T08:23:29.594Z,1.73
2018-12-09T08:25:57.086Z,1.83
2018-12-09T08:28:24.574Z,1.57
2018-12-09T08:30:52.070Z,1.40
2018-12-09T08:33:19.570Z,1.43
2018-12-09T08:35:47.067Z,1.93
2018-12-09T08:38:14.558Z,1.50
2018-12-09T08:40:42.055Z,2.13
2018-12-09T08:43:09.549Z,1.70
2018-12-09T08:45:37.049Z,2.07
2018-12-09T08:48:04.540Z,1.70
2018-12-09T08:50:32.034Z,1.50
2018-12-09T08:52:59.530Z,1.20
2018-12-09T08:55:27.021Z,1.63
2018-12-09T08:57:54.513Z,1.90
2018-12-09T09:00:22.005Z,1.40
2018-12-09T09:02:49.501Z,2.10
2018-12-09T09:05:16.997Z,2.23
2018-12-09T09:07:44.491Z,1.27
2018-12-09T09:10:11.985Z,1.73
2018-12-09T09:12:39.477Z,1.37
2018-12-09T09:15:07.193Z,1.30
2018-12-09T09:17:34.689Z,1.40
2018-12-09T09:20:02.182Z,1.77
2018-12-09T09:22:29.679Z,1.50
2018-12-09T09:24:57.173Z,2.07
2018-12-09T09:27:24.670Z,1.40
2018-12-09T09:29:52.173Z,1.97
2018-12-09T09:32:20.218Z,1.60
2018-12-09T09:34:47.711Z,1.20
2018-12-09T09:37:15.203Z,1.73
2018-12-09T09:39:42.701Z,1.70
2018-12-09T09:42:10.189Z,2.23
2018-12-09T09:44:37.678Z,1.73
2018-12-09T09:47:05.173Z,2.10
2018-12-09T09:49:32.663Z,2.23
2018-12-09T09:52:00.160Z,2.10
2018-12-09T09:54:27.649Z,1.30
2018-12-09T09:56:55.137Z,1.50
2018-12-09T09:59:22.638Z,2.00
2018-12-09T10:01:50.129Z,1.90
2018-12-09T10:04:17.622Z,1.93
2018-12-09T10:06:45.118Z,2.03
2018-12-09T10:09:12.617Z,2.47
2018-12-09T10:11:40.109Z,1.97
2018-12-09T10:14:07.606Z,1.63
2018-12-09T10:16:35.101Z,1.60
2018-12-09T10:19:02.598Z,1.40
2018-12-09T10:21:30.089Z,2.00
2018-12-09T10:23:57.585Z,1.57
2018-12-09T10:26:25.072Z,1.97
2018-12-09T10:28:52.559Z,1.63
2018-12-09T10:31:20.058Z,1.43
2018-12-09T10:33:49.520Z,1.57
2018-12-09T10:36:17.069Z,1.30
2018-12-09T10:38:44.566Z,1.53
2018-12-09T10:41:12.062Z,2.13
2018-12-09T10:43:39.558Z,1.87
2018-12-09T10:46:07.144Z,2.80
2018-12-09T10:48:34.637Z,1.93
2018-12-09T10:51:02.132Z,1.43
2018-12-09T10:53:29.625Z,1.83
2018-12-09T10:55:57.121Z,1.87
2018-12-09T10:58:24.618Z,1.50
2018-12-09T11:00:52.589Z,1.50
2018-12-09T11:03:20.083Z,2.07
2018-12-09T11:05:47.577Z,1.40
2018-12-09T11:08:16.680Z,1.67
2018-12-09T11:10:44.581Z,1.50
2018-12-09T11:13:12.077Z,1.37
2018-12-09T11:15:39.570Z,2.60
2018-12-09T11:18:07.061Z,1.40
2018-12-09T11:20:34.559Z,1.07
2018-12-09T11:23:02.051Z,1.70
2018-12-09T11:25:29.554Z,1.20
2018-12-09T11:27:57.049Z,1.37
2018-12-09T11:30:24.542Z,1.67
2018-12-09T11:32:52.038Z,1.20
2018-12-09T11:35:19.537Z,1.23
2018-12-09T11:37:47.033Z,1.40
2018-12-09T11:40:14.530Z,1.90
2018-12-09T11:42:42.024Z,1.87
2018-12-09T11:45:09.514Z,1.30
2018-12-09T11:47:37.006Z,1.33
2018-12-09T11:50:06.661Z,1.90
2018-12-09T11:52:34.153Z,1.97
2018-12-09T11:55:01.647Z,1.73
2018-12-09T11:57:29.141Z,1.53
2018-12-09T11:59:56.633Z,1.80
2018-12-09T12:02:24.129Z,1.50
2018-12-09T12:04:51.622Z,1.37
2018-12-09T12:07:19.117Z,0.90
2018-12-09T12:09:46.614Z,1.33
2018-12-09T12:12:14.108Z,1.30
2018-12-09T12:14:41.602Z,1.43
2018-12-09T12:17:09.096Z,2.20
2018-12-09T12:19:36.590Z,1.50
2018-12-09T12:22:04.085Z,1.90
2018-12-09T12:24:31.578Z,1.60
2018-12-09T12:26:59.081Z,1.17
2018-12-09T12:29:26.578Z,1.43
2018-12-09T12:31:54.350Z,1.50
2018-12-09T12:34:21.845Z,1.33
2018-12-09T12:36:49.644Z,1.50
2018-12-09T12:39:17.246Z,1.60
2018-12-09T12:41:44.852Z,1.00
2018-12-09T12:44:12.337Z,1.33
2018-12-09T12:46:39.837Z,1.40
2018-12-09T12:49:07.342Z,1.50
2018-12-09T12:51:34.826Z,1.80
2018-12-09T12:54:02.320Z,1.23
2018-12-09T12:56:29.813Z,1.37
2018-12-09T12:58:57.305Z,1.20
2018-12-09T13:01:24.930Z,1.50
2018-12-09T13:03:52.421Z,1.23
2018-12-09T13:06:20.341Z,1.40
2018-12-09T13:08:48.086Z,1.23
2018-12-09T13:11:15.585Z,1.30
2018-12-09T13:13:43.077Z,1.37
2018-12-09T13:16:10.573Z,1.67
2018-12-09T13:18:38.069Z,1.33
2018-12-09T13:21:05.561Z,1.90
2018-12-09T13:23:33.059Z,1.30
2018-12-09T13:26:00.554Z,1.37
2018-12-09T13:28:28.053Z,1.30
2018-12-09T13:30:55.626Z,1.23
2018-12-09T13:33:23.122Z,1.10
2018-12-09T13:35:50.609Z,1.43
2018-12-09T13:38:18.109Z,1.30
2018-12-09T13:40:45.606Z,1.37
2018-12-09T13:43:13.101Z,1.10
2018-12-09T13:45:40.870Z,1.77
2018-12-09T13:48:08.359Z,1.27
2018-12-09T13:50:35.944Z,1.33
2018-12-09T13:53:03.437Z,1.40
2018-12-09T13:55:30.939Z,1.23
2018-12-09T13:57:58.433Z,1.50
2018-12-09T14:00:25.931Z,1.43
2018-12-09T14:02:53.426Z,1.23
2018-12-09T14:05:20.927Z,1.10
2018-12-09T14:07:48.421Z,1.53
2018-12-09T14:10:15.912Z,1.20
2018-12-09T14:12:43.406Z,1.20
2018-12-09T14:15:10.898Z,1.63
2018-12-09T14:17:38.398Z,1.67
2018-12-09T14:20:06.369Z,1.20
2018-12-09T14:22:33.969Z,1.20
2018-12-09T14:25:01.684Z,1.50
2018-12-09T14:27:29.293Z,1.23
2018-12-09T14:29:56.790Z,1.33
2018-12-09T14:32:24.286Z,1.30
2018-12-09T14:34:51.776Z,1.50
2018-12-09T14:37:19.469Z,1.50
2018-12-09T14:39:46.962Z,1.57
2018-12-09T14:42:14.460Z,1.20
2018-12-09T14:44:41.954Z,1.40
2018-12-09T14:47:09.446Z,1.50
2018-12-09T14:49:36.945Z,1.20
2018-12-09T14:52:04.441Z,1.53
2018-12-09T14:54:31.934Z,1.30
2018-12-09T14:56:59.429Z,1.83
2018-12-09T14:59:26.922Z,1.77
2018-12-09T15:01:54.414Z,1.80
2018-12-09T15:04:21.905Z,1.13
2018-12-09T15:06:49.501Z,2.50
2018-12-09T15:09:16.993Z,1.67
2018-12-09T15:11:45.082Z,1.40
2018-12-09T15:14:12.576Z,1.33
2018-12-09T15:16:40.067Z,1.23
2018-12-09T15:19:07.558Z,1.93
2018-12-09T15:21:35.057Z,1.20
2018-12-09T15:24:02.551Z,1.40
2018-12-09T15:26:30.062Z,1.70
2018-12-09T15:28:57.557Z,1.30
2018-12-09T15:31:25.057Z,1.43
2018-12-09T15:33:52.552Z,1.60
2018-12-09T15:36:20.048Z,1.30
2018-12-09T15:38:47.541Z,1.73
2018-12-09T15:41:15.038Z,1.67
2018-12-09T15:43:42.677Z,1.57
2018-12-09T15:46:10.164Z,1.20
2018-12-09T15:48:37.654Z,2.13
2018-12-09T15:51:05.272Z,1.73
2018-12-09T15:53:32.766Z,1.50
2018-12-09T15:56:00.261Z,2.00
2018-12-09T15:58:27.753Z,1.50
2018-12-09T16:00:55.844Z,2.17
2018-12-09T16:03:23.352Z,1.47
2018-12-09T16:05:50.845Z,2.00
2018-12-09T16:08:18.337Z,1.50
2018-12-09T16:10:45.833Z,1.47
2018-12-09T16:13:13.325Z,2.00
2018-12-09T16:15:40.818Z,1.30
2018-12-09T16:18:08.317Z,1.97
2018-12-09T16:20:35.820Z,1.40
2018-12-09T16:23:03.421Z,1.70
2018-12-09T16:25:30.915Z,1.40
2018-12-09T16:27:58.406Z,1.80
2018-12-09T16:30:25.896Z,1.50
2018-12-09T16:32:53.892Z,1.70
2018-12-09T16:35:21.383Z,1.90
2018-12-09T16:37:48.881Z,1.20
2018-12-09T16:40:16.381Z,1.17
2018-12-09T16:42:43.884Z,1.30
2018-12-09T16:45:11.382Z,1.83
2018-12-09T16:47:38.873Z,1.40
2018-12-09T16:50:06.440Z,1.57
2018-12-09T16:52:33.929Z,2.13
2018-12-09T16:55:01.428Z,2.03
2018-12-09T16:57:28.933Z,1.20
2018-12-09T16:59:56.424Z,1.43
2018-12-09T17:02:24.221Z,1.10
2018-12-09T17:04:51.713Z,1.57
2018-12-09T17:07:19.201Z,1.40
2018-12-09T17:09:46.692Z,1.57
2018-12-09T17:12:14.185Z,1.47
2018-12-09T17:14:41.677Z,1.20
2018-12-09T17:17:09.173Z,1.40
2018-12-09T17:19:37.792Z,2.00
2018-12-09T17:22:05.677Z,1.17
2018-12-09T17:24:33.174Z,1.23
2018-12-09T17:27:00.668Z,1.53
2018-12-09T17:29:28.165Z,1.83
2018-12-09T17:31:55.657Z,2.70
2018-12-09T17:34:23.155Z,2.60
2018-12-09T17:36:50.659Z,3.00
2018-12-09T17:39:18.158Z,4.37
2018-12-09T17:41:45.652Z,2.57
2018-12-09T17:44:13.145Z,4.13
2018-12-09T17:46:40.641Z,4.00
2018-12-09T17:49:08.133Z,3.87
2018-12-09T17:51:35.625Z,4.13
2018-12-09T17:54:03.112Z,4.83
2018-12-09T17:56:30.605Z,6.90
2018-12-09T17:58:58.105Z,6.23
2018-12-09T18:01:25.598Z,4.73
2018-12-09T18:03:53.249Z,6.43
2018-12-09T18:06:20.745Z,6.83
2018-12-09T18:08:48.238Z,5.83
2018-12-09T18:11:15.729Z,8.43
2018-12-09T18:13:43.220Z,7.27
2018-12-09T18:16:10.714Z,8.50
2018-12-09T18:18:38.206Z,9.50
2018-12-09T18:21:05.697Z,9.13
2018-12-09T18:23:33.417Z,7.67
2018-12-09T18:26:02.057Z,8.97
2018-12-09T18:28:29.717Z,8.63
2018-12-09T18:30:57.215Z,9.33
2018-12-09T18:33:24.704Z,9.97
2018-12-09T18:35:52.197Z,10.53
2018-12-09T18:38:19.686Z,9.83
2018-12-09T18:40:47.177Z,11.30
2018-12-09T18:43:14.674Z,10.60
2018-12-09T18:45:42.173Z,10.80
2018-12-09T18:48:09.673Z,11.20
2018-12-09T18:50:38.932Z,10.43
2018-12-09T18:53:06.691Z,10.57
2018-12-09T18:55:34.196Z,11.67
2018-12-09T18:58:01.692Z,10.60
2018-12-09T19:00:29.193Z,10.70
2018-12-09T19:02:56.685Z,10.87
2018-12-09T19:05:24.194Z,10.27
2018-12-09T19:07:51.694Z,11.13
2018-12-09T19:10:19.189Z,10.77
2018-12-09T19:12:46.686Z,9.87
2018-12-09T19:15:14.185Z,14.57
2018-12-09T19:17:41.677Z,8.93
2018-12-09T19:20:09.172Z,10.63
2018-12-09T19:22:36.666Z,9.57
2018-12-09T19:25:05.412Z,9.00
2018-12-09T19:27:32.897Z,8.73
2018-12-09T19:30:00.389Z,8.77
2018-12-09T19:32:27.881Z,9.07
2018-12-09T19:34:55.374Z,7.97
2018-12-09T19:37:22.906Z,8.70
2018-12-09T19:39:50.488Z,8.67
2018-12-09T19:42:17.981Z,7.43
2018-12-09T19:44:45.606Z,9.23
2018-12-09T19:47:13.105Z,8.43
2018-12-09T19:49:40.978Z,8.03
2018-12-09T19:52:08.473Z,8.67
2018-12-09T19:54:35.981Z,8.03
2018-12-09T19:57:03.469Z,8.07
2018-12-09T19:59:30.959Z,7.63
2018-12-09T20:01:58.454Z,7.57
2018-12-09T20:04:25.949Z,7.17
2018-12-09T20:06:53.445Z,7.30
2018-12-09T20:09:20.946Z,7.83
2018-12-09T20:11:48.445Z,7.73
2018-12-09T20:14:15.943Z,7.80
2018-12-09T20:16:43.437Z,6.93
2018-12-09T20:19:10.936Z,7.30
2018-12-09T20:21:38.832Z,7.97
2018-12-09T20:24:06.328Z,7.50
2018-12-09T20:26:33.821Z,7.07
2018-12-09T20:29:01.322Z,8.30
2018-12-09T20:31:28.817Z,7.47
2018-12-09T20:33:56.309Z,6.77
2018-12-09T20:36:23.805Z,7.73
2018-12-09T20:38:51.301Z,7.40
2018-12-09T20:41:18.790Z,6.90
2018-12-09T20:43:46.289Z,7.87
2018-12-09T20:46:13.781Z,9.30
2018-12-09T20:48:41.270Z,7.40
2018-12-09T20:51:08.762Z,7.63
2018-12-09T20:53:36.257Z,7.77
2018-12-09T20:56:03.820Z,7.53
2018-12-09T20:58:31.362Z,7.40
2018-12-09T21:00:58.857Z,8.27
2018-12-09T21:03:26.397Z,8.10
2018-12-09T21:05:53.889Z,8.03
2018-12-09T21:08:21.384Z,8.90
2018-12-09T21:10:48.878Z,7.67
2018-12-09T21:13:16.374Z,7.63
2018-12-09T21:15:43.868Z,8.00
2018-12-09T21:18:11.362Z,7.57
2018-12-09T21:20:39.819Z,6.77
2018-12-09T21:23:07.337Z,7.83
2018-12-09T21:25:34.829Z,7.80
2018-12-09T21:28:02.328Z,8.47
2018-12-09T21:30:29.822Z,7.07
2018-12-09T21:32:57.318Z,7.00
2018-12-09T21:35:24.830Z,7.40
2018-12-09T21:37:52.335Z,6.40
2018-12-09T21:40:19.825Z,6.93
2018-12-09T21:42:47.317Z,7.23
2018-12-09T21:45:14.810Z,6.47
2018-12-09T21:47:42.301Z,6.30
2018-12-09T21:50:09.790Z,6.53
2018-12-09T21:52:37.281Z,6.23
2018-12-09T21:55:05.785Z,6.40
2018-12-09T21:57:33.285Z,6.00
2018-12-09T22:00:00.773Z,7.07
2018-12-09T22:02:28.265Z,6.20
2018-12-09T22:04:55.757Z,6.00
2018-12-09T22:07:23.249Z,6.10
2018-12-09T22:09:50.861Z,6.33
2018-12-09T22:12:18.754Z,5.77
2018-12-09T22:14:46.246Z,6.30
2018-12-09T22:17:13.741Z,5.83
2018-12-09T22:19:41.237Z,7.00
2018-12-09T22:22:08.737Z,4.83
2018-12-09T22:24:36.229Z,5.10
2018-12-09T22:27:03.727Z,5.90
2018-12-09T22:29:31.217Z,5.23
2018-12-09T22:31:58.709Z,5.47
2018-12-09T22:34:26.193Z,5.40
2018-12-09T22:36:53.686Z,5.27
2018-12-09T22:39:21.185Z,4.80
2018-12-09T22:41:48.681Z,4.50
2018-12-09T22:44:16.290Z,4.47
2018-12-09T22:46:44.081Z,4.80
2018-12-09T22:49:11.577Z,5.00
2018-12-09T22:51:39.073Z,4.87
2018-12-09T22:54:06.567Z,4.03
2018-12-09T22:56:34.065Z,4.33
2018-12-09T22:59:01.558Z,3.93
2018-12-09T23:01:29.154Z,4.80
2018-12-09T23:03:56.649Z,4.00
2018-12-09T23:06:24.147Z,3.83
2018-12-09T23:08:51.642Z,4.47
2018-12-09T23:11:19.133Z,3.93
2018-12-09T23:13:46.626Z,3.20
2018-12-09T23:16:14.118Z,3.27
2018-12-09T23:18:41.617Z,3.57
2018-12-09T23:21:09.117Z,3.53
2018-12-09T23:23:36.609Z,3.17
2018-12-09T23:26:04.097Z,3.40
2018-12-09T23:28:31.593Z,3.00
2018-12-09T23:30:59.089Z,2.90
2018-12-09T23:33:26.581Z,3.10
2018-12-09T23:35:54.185Z,3.00
2018-12-09T23:38:21.677Z,3.20
2018-12-09T23:40:49.171Z,3.00
2018-12-09T23:43:16.668Z,3.20
2018-12-09T23:45:44.165Z,2.50
2018-12-09T23:48:11.658Z,2.70
2018-12-09T23:50:39.152Z,3.27
2018-12-09T23:53:06.645Z,2.33
2018-12-09T23:55:34.146Z,3.23
2018-12-09T23:58:01.642Z,3.03
